Time;durP1;ratioP1;P1;durP2;ratioP2;P2;SDS_P1;SDS_P2;PMS_P1;PMS_P2;Temp;Humidity;BMP_temperature;BMP_pressure;BME280_temperature;BME280_humidity;BME280_pressure;Samples;Min_cycle;Max_cycle;Signal;HPM_P1;HPM_P2
2022/11/26 00:00:41;;;;;;;;;;;29.00;91.60;;;;;;5087057;28;19904;-55
2022/11/26 00:03:11;;;;;;;;;;;29.00;91.60;;;;;;5068938;28;19904;-61
2022/11/26 00:05:38;;;;;;;;;;;28.90;91.80;;;;;;5086546;28;24115;-57
2022/11/26 00:08:13;;;;;;;;;;;28.90;92.00;;;;;;5086141;28;24114;-53
2022/11/26 00:10:42;;;;;;;;;;;28.90;91.80;;;;;;5086489;28;20235;-53
2022/11/26 00:13:16;;;;;;;;;;;28.90;91.80;;;;;;5086870;28;20101;-54
2022/11/26 00:15:42;;;;;;;;;;;28.90;91.80;;;;;;5086665;28;19963;-51
2022/11/26 00:18:13;;;;;;;;;;;28.90;91.60;;;;;;5085888;28;24089;-53
2022/11/26 00:20:40;;;;;;;;;;;28.90;91.50;;;;;;5086897;28;19900;-53
2022/11/26 00:23:10;;;;;;;;;;;28.90;91.50;;;;;;5087078;28;20069;-56
2022/11/26 00:25:39;;;;;;;;;;;28.90;91.60;;;;;;5086554;28;24077;-51
2022/11/26 00:28:24;;;;;;;;;;;28.80;91.60;;;;;;5086552;28;20127;-53
2022/11/26 00:30:51;;;;;;;;;;;28.80;91.60;;;;;;5086608;28;25142;-50
2022/11/26 00:33:17;;;;;;;;;;;28.80;91.60;;;;;;5086621;28;19912;-58
2022/11/26 00:35:45;;;;;;;;;;;28.80;91.60;;;;;;5086491;28;24089;-52
2022/11/26 00:38:16;;;;;;;;;;;28.70;91.60;;;;;;5086136;28;25102;-54
2022/11/26 00:40:43;;;;;;;;;;;28.80;91.70;;;;;;5086295;28;24082;-52
2022/11/26 00:43:12;;;;;;;;;;;28.70;91.70;;;;;;5085990;28;19910;-59
2022/11/26 00:45:41;;;;;;;;;;;28.70;91.70;;;;;;5085436;28;20272;-58
2022/11/26 00:48:07;;;;;;;;;;;28.70;91.40;;;;;;5086155;28;19979;-55
2022/11/26 00:50:38;;;;;;;;;;;28.60;91.40;;;;;;5085659;28;24073;-53
2022/11/26 00:53:05;;;;;;;;;;;28.60;91.50;;;;;;5085768;28;25094;-52
2022/11/26 00:55:36;;;;;;;;;;;28.60;91.40;;;;;;5085844;28;20183;-51
2022/11/26 00:58:03;;;;;;;;;;;28.60;91.40;;;;;;5085902;28;19968;-54
2022/11/26 01:00:31;;;;;;;;;;;28.60;91.40;;;;;;5085622;28;24074;-53
2022/11/26 01:02:57;;;;;;;;;;;28.60;91.50;;;;;;5085865;28;19937;-53
2022/11/26 01:05:25;;;;;;;;;;;28.60;91.40;;;;;;5085785;28;19950;-53
2022/11/26 01:07:52;;;;;;;;;;;28.60;91.50;;;;;;5085777;28;20319;-52
2022/11/26 01:10:19;;;;;;;;;;;28.60;91.50;;;;;;5085480;28;24087;-56
2022/11/26 01:12:46;;;;;;;;;;;28.50;91.50;;;;;;5085605;28;20246;-54
2022/11/26 01:15:13;;;;;;;;;;;28.50;91.60;;;;;;5085909;28;20267;-53
2022/11/26 01:17:39;;;;;;;;;;;28.50;91.70;;;;;;5067726;28;24086;-53
2022/11/26 01:20:20;;;;;;;;;;;28.40;91.60;;;;;;5085095;28;20027;-51
2022/11/26 01:22:47;;;;;;;;;;;28.40;91.60;;;;;;5085807;28;19979;-53
2022/11/26 01:25:14;;;;;;;;;;;28.40;91.40;;;;;;5085287;28;24079;-58
2022/11/26 01:27:40;;;;;;;;;;;28.40;91.40;;;;;;5085791;28;19911;-55
2022/11/26 01:30:13;;;;;;;;;;;28.40;91.40;;;;;;5085229;28;24076;-53
2022/11/26 01:32:39;;;;;;;;;;;28.40;91.30;;;;;;5085322;28;19910;-58
2022/11/26 01:35:06;;;;;;;;;;;28.30;91.60;;;;;;5081010;28;20062;-50
2022/11/26 01:37:32;;;;;;;;;;;28.30;91.20;;;;;;5063934;28;20192;-54
2022/11/26 01:39:58;;;;;;;;;;;28.30;91.30;;;;;;5094668;28;20039;-53
2022/11/26 01:42:31;;;;;;;;;;;28.20;91.20;;;;;;5083332;28;20070;-52
2022/11/26 01:44:57;;;;;;;;;;;28.20;91.20;;;;;;5081481;28;24070;-51
2022/11/26 01:47:24;;;;;;;;;;;28.20;91.20;;;;;;5082525;28;24078;-58
2022/11/26 01:50:09;;;;;;;;;;;28.20;91.20;;;;;;5084722;28;24078;-52
2022/11/26 01:52:35;;;;;;;;;;;28.20;91.20;;;;;;5084766;28;25111;-55
2022/11/26 01:55:01;;;;;;;;;;;28.20;91.30;;;;;;5085019;28;20049;-53
2022/11/26 01:57:29;;;;;;;;;;;28.20;91.30;;;;;;5080968;28;24110;-53
2022/11/26 02:00:00;;;;;;;;;;;28.20;91.30;;;;;;5084647;28;24106;-54
2022/11/26 02:02:27;;;;;;;;;;;28.10;91.30;;;;;;5084605;28;24079;-56
2022/11/26 02:04:58;;;;;;;;;;;28.10;91.30;;;;;;5081513;28;24067;-52
2022/11/26 02:07:24;;;;;;;;;;;28.10;91.40;;;;;;5074384;28;19915;-60
2022/11/26 02:09:54;;;;;;;;;;;28.10;91.40;;;;;;5075796;28;19908;-52
2022/11/26 02:12:20;;;;;;;;;;;28.10;91.40;;;;;;5080995;28;24081;-51
2022/11/26 02:14:47;;;;;;;;;;;28.00;91.30;;;;;;5077319;28;24096;-51
2022/11/26 02:17:13;;;;;;;;;;;28.00;91.40;;;;;;5084793;28;19904;-53
2022/11/26 02:20:04;;;;;;;;;;;28.00;91.40;;;;;;5066889;28;20139;-57
2022/11/26 02:22:48;;;;;;;;;;;28.00;91.40;;;;;;5085299;28;19900;-53
2022/11/26 02:25:33;;;;;;;;;;;28.00;91.20;;;;;;5084583;28;19909;-53
2022/11/26 02:27:59;;;;;;;;;;;28.00;91.20;;;;;;5084171;28;19912;-60
2022/11/26 02:30:26;;;;;;;;;;;28.00;91.20;;;;;;5084158;28;19911;-55
2022/11/26 02:33:03;;;;;;;;;;;28.00;91.00;;;;;;5084534;28;19947;-52
2022/11/26 02:35:36;;;;;;;;;;;28.00;90.90;;;;;;5084075;28;20030;-54
2022/11/26 02:38:08;;;;;;;;;;;28.00;90.90;;;;;;5083969;28;19916;-51
2022/11/26 02:40:34;;;;;;;;;;;28.00;90.90;;;;;;5084346;28;19927;-61
2022/11/26 02:43:01;;;;;;;;;;;27.90;90.80;;;;;;5084129;28;20208;-52
2022/11/26 02:45:29;;;;;;;;;;;28.00;91.00;;;;;;5084049;28;20111;-57
2022/11/26 02:47:57;;;;;;;;;;;28.00;91.10;;;;;;5084293;28;19912;-53
2022/11/26 02:50:36;;;;;;;;;;;27.90;91.10;;;;;;5083962;28;19946;-50
2022/11/26 02:53:04;;;;;;;;;;;27.90;90.90;;;;;;5084093;28;19915;-60
2022/11/26 02:55:36;;;;;;;;;;;27.90;91.00;;;;;;5066067;28;19904;-52
2022/11/26 02:58:03;;;;;;;;;;;27.90;91.00;;;;;;5084037;28;19909;-53
2022/11/26 03:00:30;;;;;;;;;;;27.90;91.00;;;;;;5084382;28;20045;-56
2022/11/26 03:03:22;;;;;;;;;;;27.80;91.00;;;;;;5084122;28;20082;-56
2022/11/26 03:05:53;;;;;;;;;;;27.80;91.00;;;;;;5083885;28;19904;-58
2022/11/26 03:08:20;;;;;;;;;;;27.80;90.90;;;;;;5085431;28;19916;-54
2022/11/26 03:10:46;;;;;;;;;;;27.90;90.90;;;;;;5087862;28;19911;-56
2022/11/26 03:13:12;;;;;;;;;;;27.80;90.90;;;;;;5087828;28;19912;-53
2022/11/26 03:15:38;;;;;;;;;;;27.80;90.80;;;;;;5087814;28;19936;-59
2022/11/26 03:18:05;;;;;;;;;;;27.80;90.70;;;;;;5087437;28;20038;-51
2022/11/26 03:20:31;;;;;;;;;;;27.80;90.80;;;;;;5087442;28;20042;-51
2022/11/26 03:22:58;;;;;;;;;;;27.80;90.80;;;;;;5087985;28;19946;-56
2022/11/26 03:25:24;;;;;;;;;;;27.80;90.70;;;;;;5087262;28;19904;-53
2022/11/26 03:27:50;;;;;;;;;;;27.80;90.80;;;;;;5088338;28;20109;-52
2022/11/26 03:30:17;;;;;;;;;;;27.80;90.90;;;;;;5087295;28;20069;-51
2022/11/26 03:32:44;;;;;;;;;;;27.80;90.80;;;;;;5087848;28;20030;-61
2022/11/26 03:35:10;;;;;;;;;;;27.80;90.70;;;;;;5087776;28;19908;-55
2022/11/26 03:37:36;;;;;;;;;;;27.80;90.70;;;;;;5087423;28;20200;-54
2022/11/26 03:40:03;;;;;;;;;;;27.80;90.60;;;;;;5087100;28;24066;-54
2022/11/26 03:42:29;;;;;;;;;;;27.80;90.60;;;;;;5087419;28;19939;-57
2022/11/26 03:44:56;;;;;;;;;;;27.80;90.70;;;;;;5087662;28;19908;-57
2022/11/26 03:47:23;;;;;;;;;;;27.80;90.60;;;;;;5087977;28;19908;-56
2022/11/26 03:49:49;;;;;;;;;;;27.80;90.70;;;;;;5087569;28;19908;-53
2022/11/26 03:52:15;;;;;;;;;;;27.70;90.70;;;;;;5087500;28;20109;-59
2022/11/26 03:54:41;;;;;;;;;;;27.70;90.70;;;;;;5087107;28;20088;-58
2022/11/26 03:57:07;;;;;;;;;;;27.70;90.80;;;;;;5087585;28;19905;-56
2022/11/26 03:59:35;;;;;;;;;;;27.70;90.90;;;;;;5087227;28;20101;-55
2022/11/26 04:02:01;;;;;;;;;;;27.70;90.60;;;;;;5087193;28;19962;-58
2022/11/26 04:04:27;;;;;;;;;;;27.70;90.70;;;;;;5086833;28;20037;-53
2022/11/26 04:06:53;;;;;;;;;;;27.70;90.80;;;;;;5087305;28;20207;-54
2022/11/26 04:09:19;;;;;;;;;;;27.70;90.80;;;;;;5086510;28;19912;-56
2022/11/26 04:11:46;;;;;;;;;;;27.60;90.70;;;;;;5086949;28;20014;-54
2022/11/26 04:14:12;;;;;;;;;;;27.60;90.80;;;;;;5087067;28;20096;-52
2022/11/26 04:16:38;;;;;;;;;;;27.60;90.70;;;;;;5087014;28;19946;-57
2022/11/26 04:19:04;;;;;;;;;;;27.60;90.80;;;;;;5086149;28;20197;-55
2022/11/26 04:21:30;;;;;;;;;;;27.60;90.70;;;;;;5086659;28;19904;-53
2022/11/26 04:23:56;;;;;;;;;;;27.60;90.70;;;;;;5086336;28;19904;-54
2022/11/26 04:26:23;;;;;;;;;;;27.60;90.70;;;;;;5086573;28;19911;-53
2022/11/26 04:28:49;;;;;;;;;;;27.60;90.80;;;;;;5086050;28;24112;-54
2022/11/26 04:31:16;;;;;;;;;;;27.60;90.70;;;;;;5086312;28;19900;-54
2022/11/26 04:33:42;;;;;;;;;;;27.60;90.60;;;;;;5086177;28;19946;-54
2022/11/26 04:36:08;;;;;;;;;;;27.50;90.50;;;;;;5086115;28;19908;-53
2022/11/26 04:38:35;;;;;;;;;;;27.60;90.70;;;;;;5086055;28;20041;-56
2022/11/26 04:41:01;;;;;;;;;;;27.50;90.70;;;;;;5086142;28;20045;-57
2022/11/26 04:43:28;;;;;;;;;;;27.50;90.50;;;;;;5085982;28;19916;-54
2022/11/26 04:45:54;;;;;;;;;;;27.50;90.60;;;;;;5086062;28;19938;-54
2022/11/26 04:48:20;;;;;;;;;;;27.50;90.70;;;;;;5086120;28;19912;-56
2022/11/26 04:50:48;;;;;;;;;;;27.50;90.90;;;;;;5086102;28;19912;-56
2022/11/26 04:53:14;;;;;;;;;;;27.50;90.80;;;;;;5086108;28;19908;-54
2022/11/26 04:55:40;;;;;;;;;;;27.50;90.80;;;;;;5085826;28;24066;-53
2022/11/26 04:58:06;;;;;;;;;;;27.40;90.80;;;;;;5085453;28;19908;-52
2022/11/26 05:00:34;;;;;;;;;;;27.40;90.80;;;;;;5085646;28;19932;-53
2022/11/26 05:03:00;;;;;;;;;;;27.40;90.90;;;;;;5085547;28;24066;-53
2022/11/26 05:05:26;;;;;;;;;;;27.40;90.70;;;;;;5085260;28;19979;-61
2022/11/26 05:07:52;;;;;;;;;;;27.40;90.90;;;;;;5085665;28;19913;-53
2022/11/26 05:10:19;;;;;;;;;;;27.40;91.10;;;;;;5085413;28;24119;-53
2022/11/26 05:12:45;;;;;;;;;;;27.30;91.00;;;;;;5085588;28;19908;-53
2022/11/26 05:15:11;;;;;;;;;;;27.30;91.00;;;;;;5085560;28;19907;-54
2022/11/26 05:17:38;;;;;;;;;;;27.30;90.80;;;;;;5086217;28;19985;-54
2022/11/26 05:20:05;;;;;;;;;;;27.30;90.90;;;;;;5083767;28;19931;-54
2022/11/26 05:22:31;;;;;;;;;;;27.30;90.80;;;;;;5089435;28;20142;-59
2022/11/26 05:24:57;;;;;;;;;;;27.30;90.80;;;;;;5084796;28;19916;-55
2022/11/26 05:27:23;;;;;;;;;;;27.30;90.80;;;;;;5085510;28;19908;-53
2022/11/26 05:29:50;;;;;;;;;;;27.20;90.90;;;;;;5085034;28;20014;-55
2022/11/26 05:32:16;;;;;;;;;;;27.30;91.20;;;;;;5085151;28;20230;-54
2022/11/26 05:34:42;;;;;;;;;;;27.30;91.10;;;;;;5085127;28;24076;-54
2022/11/26 05:37:08;;;;;;;;;;;27.30;91.20;;;;;;5085957;28;19920;-53
2022/11/26 05:39:34;;;;;;;;;;;27.30;91.10;;;;;;5094929;28;25089;-57
2022/11/26 05:42:00;;;;;;;;;;;27.20;91.10;;;;;;5105870;28;19911;-56
2022/11/26 05:44:26;;;;;;;;;;;27.20;91.00;;;;;;5105609;28;20195;-56
2022/11/26 05:46:53;;;;;;;;;;;27.20;91.10;;;;;;5105647;28;20241;-53
2022/11/26 05:49:19;;;;;;;;;;;27.20;91.10;;;;;;5105342;28;19912;-53
2022/11/26 05:51:46;;;;;;;;;;;27.20;91.10;;;;;;5105003;28;24070;-54
2022/11/26 05:54:13;;;;;;;;;;;27.20;91.20;;;;;;5105270;28;24062;-54
2022/11/26 05:56:40;;;;;;;;;;;27.20;91.30;;;;;;5105139;28;24067;-54
2022/11/26 05:59:06;;;;;;;;;;;27.20;91.20;;;;;;5089519;28;19915;-51
2022/11/26 06:01:32;;;;;;;;;;;27.20;91.30;;;;;;5084297;28;19904;-55
2022/11/26 06:03:58;;;;;;;;;;;27.20;91.30;;;;;;5084802;28;19946;-55
2022/11/26 06:06:25;;;;;;;;;;;27.20;91.20;;;;;;5066692;28;19944;-56
2022/11/26 06:08:51;;;;;;;;;;;27.10;91.30;;;;;;5084091;28;20073;-53
2022/11/26 06:11:17;;;;;;;;;;;27.10;91.40;;;;;;5084721;28;19940;-55
2022/11/26 06:13:43;;;;;;;;;;;27.10;91.30;;;;;;5084417;28;19940;-53
2022/11/26 06:16:09;;;;;;;;;;;27.10;91.30;;;;;;5084623;28;20126;-55
2022/11/26 06:18:36;;;;;;;;;;;27.10;91.30;;;;;;5084445;28;24087;-53
2022/11/26 06:21:04;;;;;;;;;;;27.10;91.30;;;;;;5084177;28;19907;-52
2022/11/26 06:23:33;;;;;;;;;;;27.10;91.20;;;;;;5084474;28;24061;-54
2022/11/26 06:25:59;;;;;;;;;;;27.10;91.10;;;;;;5083994;28;25087;-53
2022/11/26 06:28:26;;;;;;;;;;;27.10;91.10;;;;;;5084450;28;19912;-53
2022/11/26 06:30:52;;;;;;;;;;;27.00;91.00;;;;;;5084472;28;19911;-53
2022/11/26 06:33:18;;;;;;;;;;;27.00;91.00;;;;;;5084197;28;19912;-56
2022/11/26 06:35:44;;;;;;;;;;;27.00;91.00;;;;;;5084158;28;20190;-54
2022/11/26 06:38:10;;;;;;;;;;;27.00;91.10;;;;;;5084454;28;19966;-57
2022/11/26 06:40:36;;;;;;;;;;;27.00;91.10;;;;;;5084031;28;20211;-58
2022/11/26 06:43:03;;;;;;;;;;;27.00;91.20;;;;;;5083639;28;24089;-51
2022/11/26 06:45:29;;;;;;;;;;;27.00;91.30;;;;;;5083937;28;19901;-56
2022/11/26 06:47:55;;;;;;;;;;;27.00;91.20;;;;;;5083974;28;19983;-53
2022/11/26 06:50:22;;;;;;;;;;;26.90;91.10;;;;;;5083626;28;24058;-55
2022/11/26 06:52:52;;;;;;;;;;;26.90;91.00;;;;;;5083857;28;19909;-55
2022/11/26 06:55:18;;;;;;;;;;;26.90;91.00;;;;;;5081179;28;19925;-55
2022/11/26 06:57:47;;;;;;;;;;;26.90;91.10;;;;;;5074430;28;19931;-53
2022/11/26 07:00:14;;;;;;;;;;;26.90;91.20;;;;;;5083815;28;19908;-53
2022/11/26 07:02:40;;;;;;;;;;;26.90;91.20;;;;;;5084560;28;20172;-55
2022/11/26 07:05:07;;;;;;;;;;;26.90;91.20;;;;;;5083965;28;19908;-56
2022/11/26 07:07:35;;;;;;;;;;;26.80;91.20;;;;;;5084273;28;19908;-57
2022/11/26 07:10:01;;;;;;;;;;;26.80;91.20;;;;;;5083901;28;24051;-57
2022/11/26 07:12:27;;;;;;;;;;;26.80;91.20;;;;;;5084039;28;24096;-51
2022/11/26 07:14:53;;;;;;;;;;;26.80;91.30;;;;;;5083605;28;19909;-52
2022/11/26 07:17:20;;;;;;;;;;;26.70;91.30;;;;;;5084349;28;19951;-52
2022/11/26 07:19:46;;;;;;;;;;;26.70;91.30;;;;;;5083708;28;19909;-53
2022/11/26 07:22:12;;;;;;;;;;;26.70;91.40;;;;;;5083394;28;24058;-55
2022/11/26 07:24:38;;;;;;;;;;;26.70;91.40;;;;;;5083634;28;19915;-53
2022/11/26 07:27:04;;;;;;;;;;;26.70;91.70;;;;;;5083900;28;19904;-58
2022/11/26 07:29:31;;;;;;;;;;;26.60;91.60;;;;;;5083484;28;24087;-52
2022/11/26 07:31:57;;;;;;;;;;;26.60;91.80;;;;;;5083977;28;24077;-57
2022/11/26 07:34:23;;;;;;;;;;;26.60;91.90;;;;;;5083831;28;19904;-53
2022/11/26 07:36:49;;;;;;;;;;;26.60;92.00;;;;;;5083421;28;19919;-52
2022/11/26 07:39:15;;;;;;;;;;;26.60;92.00;;;;;;5079804;28;19908;-52
2022/11/26 07:41:41;;;;;;;;;;;26.60;92.20;;;;;;5073920;28;20177;-57
2022/11/26 07:44:10;;;;;;;;;;;26.60;92.20;;;;;;5083569;28;19908;-57
2022/11/26 07:46:36;;;;;;;;;;;26.60;92.20;;;;;;5083706;28;19901;-57
2022/11/26 07:49:03;;;;;;;;;;;26.50;92.20;;;;;;5082793;28;20085;-59
2022/11/26 07:51:30;;;;;;;;;;;26.50;92.30;;;;;;5082920;28;19923;-57
2022/11/26 07:53:57;;;;;;;;;;;26.50;92.40;;;;;;5083991;28;20099;-52
2022/11/26 07:56:24;;;;;;;;;;;26.50;92.40;;;;;;5086998;28;19909;-54
2022/11/26 07:58:50;;;;;;;;;;;26.50;92.50;;;;;;5086974;28;19936;-57
2022/11/26 08:01:18;;;;;;;;;;;26.40;92.30;;;;;;5086129;28;24064;-54
2022/11/26 08:03:45;;;;;;;;;;;26.40;92.40;;;;;;5086437;28;19909;-56
2022/11/26 08:06:13;;;;;;;;;;;26.40;92.50;;;;;;5066660;28;24125;-52
2022/11/26 08:08:40;;;;;;;;;;;26.40;92.30;;;;;;5083050;28;19912;-52
2022/11/26 08:11:13;;;;;;;;;;;26.40;92.10;;;;;;5088865;28;19971;-57
2022/11/26 08:13:40;;;;;;;;;;;26.40;92.20;;;;;;5086781;28;19909;-52
2022/11/26 08:16:06;;;;;;;;;;;26.40;92.20;;;;;;5086838;28;19904;-51
2022/11/26 08:18:32;;;;;;;;;;;26.40;92.30;;;;;;5086777;28;20073;-52
2022/11/26 08:20:59;;;;;;;;;;;26.30;92.20;;;;;;5086533;28;24078;-55
2022/11/26 08:23:27;;;;;;;;;;;26.30;92.20;;;;;;5086736;28;20139;-57
2022/11/26 08:25:53;;;;;;;;;;;26.30;92.20;;;;;;5086829;28;19905;-55
2022/11/26 08:28:19;;;;;;;;;;;26.30;92.30;;;;;;5086228;28;20193;-54
2022/11/26 08:30:45;;;;;;;;;;;26.30;92.20;;;;;;5086333;28;19904;-59
2022/11/26 08:33:12;;;;;;;;;;;26.30;92.40;;;;;;5085841;28;20211;-56
2022/11/26 08:35:38;;;;;;;;;;;26.30;92.40;;;;;;5086071;28;19910;-55
2022/11/26 08:38:04;;;;;;;;;;;26.30;92.50;;;;;;5086287;28;24104;-53
2022/11/26 08:40:30;;;;;;;;;;;26.30;92.40;;;;;;5086322;28;24121;-53
2022/11/26 08:42:56;;;;;;;;;;;26.30;92.40;;;;;;5086473;28;24096;-52
2022/11/26 08:45:23;;;;;;;;;;;26.30;92.50;;;;;;5086220;28;19904;-51
2022/11/26 08:47:49;;;;;;;;;;;26.20;92.40;;;;;;5086266;28;19920;-52
2022/11/26 08:50:15;;;;;;;;;;;26.20;92.50;;;;;;5086065;28;19904;-52
2022/11/26 08:52:42;;;;;;;;;;;26.20;92.50;;;;;;5086486;28;19904;-53
2022/11/26 08:55:08;;;;;;;;;;;26.20;92.30;;;;;;5085968;28;19909;-53
2022/11/26 08:57:34;;;;;;;;;;;26.20;92.30;;;;;;5086506;28;19927;-52
2022/11/26 09:00:00;;;;;;;;;;;26.20;92.10;;;;;;5085753;28;19915;-56
2022/11/26 09:02:26;;;;;;;;;;;26.20;92.20;;;;;;5085035;28;19904;-52
2022/11/26 09:04:53;;;;;;;;;;;26.20;92.20;;;;;;5084620;28;19909;-54
2022/11/26 09:07:19;;;;;;;;;;;26.20;92.40;;;;;;5082957;28;20147;-49
2022/11/26 09:09:45;;;;;;;;;;;26.10;92.30;;;;;;5089981;28;19912;-56
2022/11/26 09:12:11;;;;;;;;;;;26.10;92.50;;;;;;5085605;28;20219;-55
2022/11/26 09:14:38;;;;;;;;;;;26.10;92.40;;;;;;5085122;28;19914;-57
2022/11/26 09:17:05;;;;;;;;;;;26.10;92.50;;;;;;5085341;28;19912;-50
2022/11/26 09:19:31;;;;;;;;;;;26.10;92.60;;;;;;5084649;28;19968;-50
2022/11/26 09:21:58;;;;;;;;;;;26.10;92.60;;;;;;5085520;28;19904;-54
2022/11/26 09:24:25;;;;;;;;;;;26.10;92.70;;;;;;5085435;28;24106;-54
2022/11/26 09:26:51;;;;;;;;;;;26.10;92.80;;;;;;5085832;28;20088;-52
2022/11/26 09:29:19;;;;;;;;;;;26.10;92.80;;;;;;5085289;28;24068;-51
2022/11/26 09:31:45;;;;;;;;;;;26.10;92.90;;;;;;5085434;28;19904;-52
2022/11/26 09:34:12;;;;;;;;;;;26.10;93.10;;;;;;5083259;28;19915;-55
2022/11/26 09:36:38;;;;;;;;;;;26.10;93.00;;;;;;5085164;28;19915;-51
2022/11/26 09:39:04;;;;;;;;;;;26.10;93.00;;;;;;5085059;28;20092;-52
2022/11/26 09:41:33;;;;;;;;;;;26.10;92.90;;;;;;5085223;28;24118;-51
2022/11/26 09:44:05;;;;;;;;;;;26.10;93.00;;;;;;5085372;28;19908;-51
2022/11/26 09:46:35;;;;;;;;;;;26.10;92.80;;;;;;5084944;28;24058;-52
2022/11/26 09:49:03;;;;;;;;;;;26.10;92.90;;;;;;5085109;28;19912;-57
2022/11/26 09:51:29;;;;;;;;;;;26.10;93.00;;;;;;5084961;28;24089;-55
2022/11/26 09:53:55;;;;;;;;;;;26.10;92.80;;;;;;5085004;28;25116;-52
2022/11/26 09:56:26;;;;;;;;;;;26.10;92.80;;;;;;5084914;28;24063;-52
2022/11/26 09:59:04;;;;;;;;;;;26.10;92.60;;;;;;5084742;28;20077;-53
2022/11/26 10:01:31;;;;;;;;;;;26.10;92.60;;;;;;5085058;28;24116;-50
2022/11/26 10:03:58;;;;;;;;;;;26.10;92.50;;;;;;5084733;28;24079;-53
2022/11/26 10:06:27;;;;;;;;;;;26.10;92.60;;;;;;5084668;28;19904;-50
2022/11/26 10:08:59;;;;;;;;;;;26.10;92.60;;;;;;5084763;28;19908;-53
2022/11/26 10:11:44;;;;;;;;;;;26.10;92.60;;;;;;5085067;28;19982;-50
2022/11/26 10:14:28;;;;;;;;;;;26.10;92.60;;;;;;5083314;28;20188;-50
2022/11/26 10:16:57;;;;;;;;;;;26.00;92.70;;;;;;5083136;28;20148;-53
2022/11/26 10:19:36;;;;;;;;;;;26.00;92.60;;;;;;5084100;28;20085;-53
2022/11/26 10:22:04;;;;;;;;;;;26.00;92.50;;;;;;5084704;28;20153;-56
2022/11/26 10:24:31;;;;;;;;;;;26.00;92.60;;;;;;5085837;28;19944;-48
2022/11/26 10:26:59;;;;;;;;;;;26.00;92.70;;;;;;5083170;28;19979;-51
2022/11/26 10:29:25;;;;;;;;;;;26.00;92.80;;;;;;5083610;28;19919;-56
2022/11/26 10:31:56;;;;;;;;;;;26.00;92.70;;;;;;5086667;28;19911;-52
2022/11/26 10:34:29;;;;;;;;;;;26.00;92.80;;;;;;5084201;28;20007;-50
2022/11/26 10:36:56;;;;;;;;;;;26.00;92.80;;;;;;5084122;28;24086;-57
2022/11/26 10:39:22;;;;;;;;;;;26.00;92.80;;;;;;5084345;28;24070;-52
2022/11/26 10:41:48;;;;;;;;;;;26.00;92.90;;;;;;5084562;28;20058;-53
2022/11/26 10:44:30;;;;;;;;;;;26.00;92.80;;;;;;5083661;28;24058;-55
2022/11/26 10:46:56;;;;;;;;;;;26.00;92.90;;;;;;5084518;28;19904;-55
2022/11/26 10:49:27;;;;;;;;;;;26.00;92.90;;;;;;5083915;28;19935;-52
2022/11/26 10:51:55;;;;;;;;;;;26.00;93.20;;;;;;5084415;28;19963;-50
2022/11/26 10:54:23;;;;;;;;;;;25.90;93.10;;;;;;5084115;28;19908;-57
2022/11/26 10:56:53;;;;;;;;;;;25.90;93.10;;;;;;5084382;28;24115;-52
2022/11/26 10:59:20;;;;;;;;;;;25.90;92.90;;;;;;5083963;28;19908;-50
2022/11/26 11:01:47;;;;;;;;;;;25.90;93.10;;;;;;5083793;28;24065;-55
2022/11/26 11:04:26;;;;;;;;;;;26.00;93.20;;;;;;5083891;28;24091;-51
2022/11/26 11:06:52;;;;;;;;;;;26.00;93.00;;;;;;5083716;28;19905;-52
2022/11/26 11:09:35;;;;;;;;;;;26.00;93.10;;;;;;5083769;28;19912;-52
2022/11/26 11:12:10;;;;;;;;;;;26.00;92.90;;;;;;5084198;28;19912;-51
2022/11/26 11:14:36;;;;;;;;;;;26.00;92.90;;;;;;5083642;28;19909;-51
2022/11/26 11:17:03;;;;;;;;;;;26.10;92.90;;;;;;5083499;28;19936;-51
2022/11/26 11:19:30;;;;;;;;;;;26.10;92.90;;;;;;5083836;28;20109;-51
2022/11/26 11:21:57;;;;;;;;;;;26.10;92.90;;;;;;5082325;28;19905;-51
2022/11/26 11:24:26;;;;;;;;;;;26.10;92.80;;;;;;5066841;28;19912;-52
2022/11/26 11:26:53;;;;;;;;;;;26.20;92.90;;;;;;5083767;28;19912;-54
2022/11/26 11:29:28;;;;;;;;;;;26.20;93.00;;;;;;5085530;28;19924;-52
2022/11/26 11:31:55;;;;;;;;;;;26.20;93.00;;;;;;5087889;28;24110;-51
2022/11/26 11:34:30;;;;;;;;;;;26.20;93.10;;;;;;5086343;28;20216;-51
2022/11/26 11:36:59;;;;;;;;;;;26.30;93.20;;;;;;5085113;28;19912;-51
2022/11/26 11:39:34;;;;;;;;;;;26.20;93.20;;;;;;5087577;28;19908;-55
2022/11/26 11:42:01;;;;;;;;;;;26.30;93.30;;;;;;5087537;28;19974;-53
2022/11/26 11:44:31;;;;;;;;;;;26.30;93.30;;;;;;5086996;28;19916;-51
2022/11/26 11:47:03;;;;;;;;;;;26.30;93.30;;;;;;5086277;28;19971;-50
2022/11/26 11:49:35;;;;;;;;;;;26.30;93.30;;;;;;5086918;28;20108;-51
2022/11/26 11:52:12;;;;;;;;;;;26.30;93.20;;;;;;5088027;28;19929;-51
2022/11/26 11:54:46;;;;;;;;;;;26.40;93.30;;;;;;5087114;28;24109;-54
2022/11/26 11:57:23;;;;;;;;;;;26.40;93.30;;;;;;5087670;28;19911;-57
2022/11/26 12:00:13;;;;;;;;;;;26.40;93.20;;;;;;5086948;28;19917;-56
2022/11/26 12:02:46;;;;;;;;;;;26.40;93.20;;;;;;5087199;28;19908;-61
2022/11/26 12:05:36;;;;;;;;;;;26.50;93.10;;;;;;5082836;28;24065;-53
2022/11/26 12:08:21;;;;;;;;;;;26.50;93.00;;;;;;5084910;28;19958;-56
2022/11/26 12:10:59;;;;;;;;;;;26.60;93.00;;;;;;5084243;28;19947;-55
2022/11/26 12:13:26;;;;;;;;;;;26.60;93.00;;;;;;5085768;28;19908;-53
2022/11/26 12:15:55;;;;;;;;;;;26.60;93.00;;;;;;5085325;28;19904;-52
2022/11/26 12:18:25;;;;;;;;;;;26.70;92.90;;;;;;5085208;28;20030;-54
2022/11/26 12:21:04;;;;;;;;;;;26.70;92.80;;;;;;5086364;28;19904;-52
2022/11/26 12:23:40;;;;;;;;;;;26.80;92.80;;;;;;5087272;28;20064;-53
2022/11/26 12:26:24;;;;;;;;;;;26.80;92.80;;;;;;5085772;28;19911;-54
2022/11/26 12:28:50;;;;;;;;;;;26.80;92.70;;;;;;5086283;28;19918;-52
2022/11/26 12:31:22;;;;;;;;;;;26.90;92.50;;;;;;5086579;28;19911;-56
2022/11/26 12:33:48;;;;;;;;;;;26.90;92.60;;;;;;5086657;28;19908;-53
2022/11/26 12:36:37;;;;;;;;;;;26.90;92.50;;;;;;5086417;28;20082;-53
2022/11/26 12:39:06;;;;;;;;;;;26.90;92.50;;;;;;5085936;28;20254;-52
2022/11/26 12:41:45;;;;;;;;;;;27.00;92.40;;;;;;5085242;28;19904;-55
2022/11/26 12:44:29;;;;;;;;;;;27.00;92.50;;;;;;5086104;28;20070;-57
2022/11/26 12:47:08;;;;;;;;;;;27.10;92.40;;;;;;5086364;28;20092;-52
2022/11/26 12:49:46;;;;;;;;;;;27.10;92.40;;;;;;5071020;28;19919;-53
2022/11/26 12:52:12;;;;;;;;;;;27.10;92.40;;;;;;5071063;28;20004;-51
2022/11/26 12:54:46;;;;;;;;;;;27.10;92.40;;;;;;5065859;28;19980;-51
2022/11/26 12:57:20;;;;;;;;;;;27.20;92.40;;;;;;5066335;28;19967;-52
2022/11/26 12:59:46;;;;;;;;;;;27.20;92.50;;;;;;5065859;28;20217;-54
2022/11/26 13:02:29;;;;;;;;;;;27.20;92.50;;;;;;5065902;28;19951;-51
2022/11/26 13:04:56;;;;;;;;;;;27.20;92.50;;;;;;5065815;28;20098;-56
2022/11/26 13:07:22;;;;;;;;;;;27.30;92.60;;;;;;5065081;28;20181;-57
2022/11/26 13:09:54;;;;;;;;;;;27.30;92.50;;;;;;5065588;28;20059;-56
2022/11/26 13:12:26;;;;;;;;;;;27.30;92.60;;;;;;5047892;28;20181;-51
2022/11/26 13:15:17;;;;;;;;;;;27.30;92.60;;;;;;5065473;28;19915;-52
2022/11/26 13:17:46;;;;;;;;;;;27.30;92.60;;;;;;5068245;28;19904;-51
2022/11/26 13:20:15;;;;;;;;;;;27.30;92.60;;;;;;5084178;28;19916;-56
2022/11/26 13:22:53;;;;;;;;;;;27.40;92.60;;;;;;5077504;28;24107;-58
2022/11/26 13:25:32;;;;;;;;;;;27.40;92.60;;;;;;5065514;28;20053;-54
2022/11/26 13:27:58;;;;;;;;;;;27.50;92.60;;;;;;5066194;28;19927;-58
2022/11/26 13:30:44;;;;;;;;;;;27.50;92.70;;;;;;5074640;28;19927;-60
2022/11/26 13:33:13;;;;;;;;;;;27.50;92.40;;;;;;5085491;28;19909;-53
2022/11/26 13:35:57;;;;;;;;;;;27.50;92.50;;;;;;5076060;28;19924;-57
2022/11/26 13:38:32;;;;;;;;;;;27.50;92.40;;;;;;5065374;28;20069;-53
2022/11/26 13:40:58;;;;;;;;;;;27.50;92.40;;;;;;5068801;28;19913;-52
2022/11/26 13:43:48;;;;;;;;;;;27.60;92.50;;;;;;5076776;28;19987;-56
2022/11/26 13:46:28;;;;;;;;;;;27.60;92.50;;;;;;5065199;28;24065;-52
2022/11/26 13:48:58;;;;;;;;;;;27.60;92.50;;;;;;5064997;28;25129;-54
2022/11/26 13:51:48;;;;;;;;;;;27.60;92.40;;;;;;5064559;28;20066;-54
2022/11/26 13:54:14;;;;;;;;;;;27.70;92.50;;;;;;5080717;28;20022;-57
2022/11/26 13:56:42;;;;;;;;;;;27.70;92.50;;;;;;5063792;28;19916;-54
2022/11/26 13:59:14;;;;;;;;;;;27.70;92.50;;;;;;5064495;28;20039;-54
2022/11/26 14:01:40;;;;;;;;;;;27.80;92.40;;;;;;5046966;28;19916;-51
2022/11/26 14:04:14;;;;;;;;;;;27.80;92.40;;;;;;5064675;28;19909;-55
2022/11/26 14:07:01;;;;;;;;;;;27.80;92.40;;;;;;5064655;28;25058;-58
2022/11/26 14:09:45;;;;;;;;;;;27.80;92.40;;;;;;5046561;28;20360;-58
2022/11/26 14:12:12;;;;;;;;;;;27.80;92.50;;;;;;5064857;28;19947;-57
2022/11/26 14:14:38;;;;;;;;;;;27.80;92.40;;;;;;5064241;28;24066;-55
2022/11/26 14:17:09;;;;;;;;;;;27.80;92.50;;;;;;5052092;28;24086;-54
2022/11/26 14:19:41;;;;;;;;;;;27.90;92.50;;;;;;5069745;28;19980;-51
2022/11/26 14:22:10;;;;;;;;;;;27.90;92.50;;;;;;5084962;28;24079;-51
2022/11/26 14:24:49;;;;;;;;;;;27.90;92.50;;;;;;5081959;28;19984;-56
2022/11/26 14:27:16;;;;;;;;;;;27.90;92.50;;;;;;5082753;28;19904;-57